Time,TemperatureF,DewpointF,PressureIn,WindDirection,WindDirectionDegrees,WindSpeedMPH,WindSpeedGustMPH,Humidity,HourlyPrecipIn,Conditions,Clouds,dailyrainin,SoftwareType,DateUTC
2013-10-11 00:01:00,54.5,44.2,29.98,NW,304,0.0,0.0,68,0.00,,,0.00,meteobridge,2013-10-11 07:01:00,
2013-10-11 00:06:00,54.3,44.4,29.98,NW,304,0.0,0.0,69,0.00,,,0.00,meteobridge,2013-10-11 07:06:00,
2013-10-11 00:12:00,54.0,44.1,29.98,NW,304,0.0,0.0,69,0.00,,,0.00,meteobridge,2013-10-11 07:12:00,
2013-10-11 00:17:00,53.4,44.2,29.98,NW,304,0.0,0.0,71,0.00,,,0.00,meteobridge,2013-10-11 07:17:00,
2013-10-11 00:22:00,53.2,44.1,29.98,NW,304,0.0,0.0,71,0.00,,,0.00,meteobridge,2013-10-11 07:22:00,
2013-10-11 00:27:00,53.2,43.7,29.98,NW,304,0.0,0.0,70,0.00,,,0.00,meteobridge,2013-10-11 07:27:00,
2013-10-11 00:32:00,53.4,43.9,29.98,NW,304,0.0,0.0,70,0.00,,,0.00,meteobridge,2013-10-11 07:32:00,
2013-10-11 00:37:00,53.2,43.7,29.99,NW,304,0.0,0.0,70,0.00,,,0.00,meteobridge,2013-10-11 07:37:00,
2013-10-11 00:43:00,53.1,43.5,29.98,SSE,147,0.0,0.9,70,0.00,,,0.00,meteobridge,2013-10-11 07:43:00,
2013-10-11 00:48:00,53.2,42.6,29.99,SSE,153,0.0,0.0,67,0.00,,,0.00,meteobridge,2013-10-11 07:48:00,
2013-10-11 00:53:00,53.4,41.5,29.99,WSW,257,0.0,0.0,64,0.00,,,0.00,meteobridge,2013-10-11 07:53:00,
2013-10-11 00:58:00,53.6,41.4,29.99,West,259,2.0,2.0,63,0.00,,,0.00,meteobridge,2013-10-11 07:58:00,
2013-10-11 01:03:00,53.4,40.6,29.99,WSW,248,2.0,2.0,62,0.00,,,0.00,meteobridge,2013-10-11 08:03:00,
2013-10-11 01:08:00,53.6,40.8,30.00,WSW,243,0.0,0.9,62,0.00,,,0.00,meteobridge,2013-10-11 08:08:00,
2013-10-11 01:13:00,53.6,40.8,30.00,WSW,237,0.0,0.9,62,0.00,,,0.00,meteobridge,2013-10-11 08:13:00,
2013-10-11 01:18:00,53.1,40.8,30.00,SW,235,0.9,0.9,63,0.00,,,0.00,meteobridge,2013-10-11 08:18:00,
2013-10-11 01:23:00,52.9,41.4,30.00,SW,235,0.0,0.0,65,0.00,,,0.00,meteobridge,2013-10-11 08:23:00,
2013-10-11 01:29:00,52.3,41.7,29.99,SW,235,0.0,0.0,67,0.00,,,0.00,meteobridge,2013-10-11 08:29:00,
2013-10-11 01:34:00,52.2,41.9,29.99,SW,236,0.0,0.0,68,0.00,,,0.00,meteobridge,2013-10-11 08:34:00,
2013-10-11 01:39:00,52.2,41.5,29.99,WSW,243,0.0,0.0,67,0.00,,,0.00,meteobridge,2013-10-11 08:39:00,
2013-10-11 01:44:00,52.3,42.1,29.99,WSW,257,0.0,0.0,68,0.00,,,0.00,meteobridge,2013-10-11 08:44:00,
2013-10-11 01:49:00,52.3,41.7,29.99,WSW,249,0.0,0.0,67,0.00,,,0.00,meteobridge,2013-10-11 08:49:00,
2013-10-11 01:54:00,52.3,41.7,29.99,WSW,238,0.9,0.9,67,0.00,,,0.00,meteobridge,2013-10-11 08:54:00,
2013-10-11 01:59:00,52.3,41.7,29.99,SW,217,2.0,2.0,67,0.00,,,0.00,meteobridge,2013-10-11 08:59:00,
2013-10-11 02:04:00,52.9,41.4,29.99,SW,226,0.9,2.9,65,0.00,,,0.00,meteobridge,2013-10-11 09:04:00,
2013-10-11 02:09:00,53.2,41.4,29.99,SW,235,2.0,2.0,64,0.00,,,0.00,meteobridge,2013-10-11 09:09:00,
2013-10-11 02:14:00,53.2,42.3,29.99,SW,223,0.9,2.0,66,0.00,,,0.00,meteobridge,2013-10-11 09:14:00,
2013-10-11 02:19:00,52.0,42.1,29.99,SE,143,2.0,2.9,69,0.00,,,0.00,meteobridge,2013-10-11 09:19:00,
2013-10-11 02:24:00,51.3,41.9,29.99,SSE,165,0.9,0.9,70,0.00,,,0.00,meteobridge,2013-10-11 09:24:00,
2013-10-11 02:29:00,50.4,42.4,29.99,SSE,155,2.9,2.9,74,0.00,,,0.00,meteobridge,2013-10-11 09:29:00,
2013-10-11 02:34:00,49.6,42.4,29.99,SSE,151,2.0,2.9,76,0.00,,,0.00,meteobridge,2013-10-11 09:34:00,
2013-10-11 02:39:00,48.9,42.1,29.99,SE,144,0.0,0.9,77,0.00,,,0.00,meteobridge,2013-10-11 09:39:00,
2013-10-11 02:44:00,48.7,42.3,29.99,SSE,155,0.0,0.0,78,0.00,,,0.00,meteobridge,2013-10-11 09:44:00,
2013-10-11 02:50:00,48.6,42.3,29.99,SSE,155,0.0,0.0,79,0.00,,,0.00,meteobridge,2013-10-11 09:50:00,
2013-10-11 02:55:00,48.4,42.4,29.99,SSE,158,0.9,2.0,80,0.00,,,0.00,meteobridge,2013-10-11 09:55:00,
2013-10-11 03:00:00,48.4,42.4,29.99,SSE,158,0.0,0.0,80,0.00,,,0.00,meteobridge,2013-10-11 10:00:00,
2013-10-11 03:05:00,48.6,42.6,29.99,South,170,0.0,0.0,80,0.00,,,0.00,meteobridge,2013-10-11 10:05:00,
2013-10-11 03:10:00,48.9,43.0,30.00,SW,222,0.0,0.9,80,0.00,,,0.00,meteobridge,2013-10-11 10:10:00,
2013-10-11 03:15:00,48.6,42.6,29.99,SSW,205,0.0,0.0,80,0.00,,,0.00,meteobridge,2013-10-11 10:15:00,
2013-10-11 03:20:00,48.2,42.6,29.99,SSW,205,0.0,0.0,81,0.00,,,0.00,meteobridge,2013-10-11 10:20:00,
2013-10-11 03:26:00,48.4,42.8,29.99,SSW,206,0.0,0.0,81,0.00,,,0.00,meteobridge,2013-10-11 10:26:00,
2013-10-11 03:31:00,48.7,42.4,29.99,South,186,0.0,0.0,79,0.00,,,0.00,meteobridge,2013-10-11 10:31:00,
2013-10-11 03:36:00,49.1,43.2,29.99,SE,135,2.0,2.9,80,0.00,,,0.00,meteobridge,2013-10-11 10:36:00,
2013-10-11 03:41:00,49.3,42.4,30.00,SSW,203,0.9,0.9,77,0.00,,,0.00,meteobridge,2013-10-11 10:41:00,
2013-10-11 03:46:00,49.8,42.3,29.99,SSW,198,0.9,0.9,75,0.00,,,0.00,meteobridge,2013-10-11 10:46:00,
2013-10-11 03:51:00,50.5,42.3,29.99,SW,214,0.9,0.9,73,0.00,,,0.00,meteobridge,2013-10-11 10:51:00,
2013-10-11 03:57:00,50.7,42.1,29.99,SW,219,0.0,0.0,72,0.00,,,0.00,meteobridge,2013-10-11 10:57:00,
2013-10-11 04:02:00,50.5,42.3,29.99,SW,219,0.0,0.0,73,0.00,,,0.00,meteobridge,2013-10-11 11:02:00,
2013-10-11 04:07:00,50.5,42.3,29.99,SW,219,0.0,0.0,73,0.00,,,0.00,meteobridge,2013-10-11 11:07:00,
2013-10-11 04:13:00,50.4,42.1,29.99,SW,219,0.0,0.0,73,0.00,,,0.00,meteobridge,2013-10-11 11:13:00,
2013-10-11 04:18:00,50.4,42.1,29.99,WSW,244,0.0,0.0,73,0.00,,,0.00,meteobridge,2013-10-11 11:18:00,
2013-10-11 04:23:00,50.4,42.1,30.00,WSW,244,0.0,0.0,73,0.00,,,0.00,meteobridge,2013-10-11 11:23:00,
2013-10-11 04:28:00,50.4,42.1,30.00,South,176,0.9,0.9,73,0.00,,,0.00,meteobridge,2013-10-11 11:28:00,
2013-10-11 04:33:00,50.0,41.7,30.00,South,186,0.9,0.9,73,0.00,,,0.00,meteobridge,2013-10-11 11:33:00,
2013-10-11 04:38:00,50.2,41.9,30.00,South,169,2.0,2.0,73,0.00,,,0.00,meteobridge,2013-10-11 11:38:00,
2013-10-11 04:43:00,50.2,41.5,30.00,SSW,198,2.0,2.0,72,0.00,,,0.00,meteobridge,2013-10-11 11:43:00,
2013-10-11 04:48:00,50.2,41.9,30.00,South,189,0.0,0.9,73,0.00,,,0.00,meteobridge,2013-10-11 11:48:00,
2013-10-11 04:53:00,49.5,41.9,30.00,SSE,161,0.9,0.9,75,0.00,,,0.00,meteobridge,2013-10-11 11:53:00,
2013-10-11 04:58:00,49.1,41.9,30.00,SSE,162,0.9,0.9,76,0.00,,,0.00,meteobridge,2013-10-11 11:58:00,
2013-10-11 05:03:00,48.2,41.4,30.00,SE,131,2.0,2.9,77,0.00,,,0.00,meteobridge,2013-10-11 12:03:00,
2013-10-11 05:08:00,47.7,41.2,30.00,SSE,158,0.9,0.9,78,0.00,,,0.00,meteobridge,2013-10-11 12:08:00,
2013-10-11 05:14:00,47.7,41.2,30.01,SSE,158,0.0,0.0,78,0.00,,,0.00,meteobridge,2013-10-11 12:14:00,
2013-10-11 05:19:00,47.8,41.4,30.00,SSE,160,0.0,0.0,78,0.00,,,0.00,meteobridge,2013-10-11 12:19:00,
2013-10-11 05:24:00,47.3,40.8,30.01,SE,138,4.9,4.9,78,0.00,,,0.00,meteobridge,2013-10-11 12:24:00,
2013-10-11 05:29:00,46.0,40.8,30.01,SE,140,4.9,4.9,82,0.00,,,0.00,meteobridge,2013-10-11 12:29:00,
2013-10-11 05:34:00,45.5,40.6,30.00,SE,141,2.9,2.9,83,0.00,,,0.00,meteobridge,2013-10-11 12:34:00,
2013-10-11 05:39:00,45.0,40.5,30.00,SE,140,2.9,4.0,84,0.00,,,0.00,meteobridge,2013-10-11 12:39:00,
2013-10-11 05:44:00,44.8,40.5,30.01,SSE,152,2.0,4.0,85,0.00,,,0.00,meteobridge,2013-10-11 12:44:00,
2013-10-11 05:49:00,45.0,40.6,30.01,SE,139,2.0,2.0,85,0.00,,,0.00,meteobridge,2013-10-11 12:49:00,
2013-10-11 05:54:00,45.1,40.8,30.01,SE,146,2.0,2.0,85,0.00,,,0.00,meteobridge,2013-10-11 12:54:00,
2013-10-11 05:59:00,45.7,41.4,30.01,SSE,149,2.0,2.9,85,0.00,,,0.00,meteobridge,2013-10-11 12:59:00,
2013-10-11 06:04:00,45.7,41.2,30.01,SE,142,2.0,2.0,84,0.00,,,0.00,meteobridge,2013-10-11 13:04:00,
2013-10-11 06:09:00,45.7,41.2,30.01,SE,138,2.9,2.9,84,0.00,,,0.00,meteobridge,2013-10-11 13:09:00,
2013-10-11 06:14:00,45.5,41.0,30.01,SE,131,2.9,4.0,84,0.00,,,0.00,meteobridge,2013-10-11 13:14:00,
2013-10-11 06:19:00,45.1,40.6,30.02,SE,134,4.0,4.9,84,0.00,,,0.00,meteobridge,2013-10-11 13:19:00,
2013-10-11 06:24:00,45.0,40.6,30.02,SE,129,2.9,4.0,85,0.00,,,0.00,meteobridge,2013-10-11 13:24:00,
2013-10-11 06:29:00,44.6,40.6,30.02,SE,139,2.0,2.9,86,0.00,,,0.00,meteobridge,2013-10-11 13:29:00,
2013-10-11 06:34:00,44.8,40.8,30.02,SE,134,2.0,2.9,86,0.00,,,0.00,meteobridge,2013-10-11 13:34:00,
2013-10-11 06:40:00,44.8,40.8,30.02,SE,142,2.0,2.9,86,0.00,,,0.00,meteobridge,2013-10-11 13:40:00,
2013-10-11 06:45:00,45.1,41.2,30.02,SE,135,2.9,4.0,86,0.00,,,0.00,meteobridge,2013-10-11 13:45:00,
2013-10-11 06:50:00,45.7,41.4,30.02,SE,143,2.0,2.9,85,0.00,,,0.00,meteobridge,2013-10-11 13:50:00,
2013-10-11 06:55:00,46.0,41.5,30.02,SE,143,0.9,2.0,84,0.00,,,0.00,meteobridge,2013-10-11 13:55:00,
2013-10-11 07:00:00,46.2,41.4,30.02,SE,131,2.0,2.0,83,0.00,,,0.00,meteobridge,2013-10-11 14:00:00,
2013-10-11 07:05:00,46.4,41.5,30.02,SE,135,2.0,2.9,83,0.00,,,0.00,meteobridge,2013-10-11 14:05:00,
2013-10-11 07:10:00,46.6,41.7,30.03,SE,133,2.0,2.0,83,0.00,,,0.00,meteobridge,2013-10-11 14:10:00,
2013-10-11 07:15:00,46.6,41.7,30.02,SE,137,2.9,4.0,83,0.00,,,0.00,meteobridge,2013-10-11 14:15:00,
2013-10-11 07:20:00,46.9,42.4,30.02,SE,125,2.0,2.9,84,0.00,,,0.00,meteobridge,2013-10-11 14:20:00,
2013-10-11 07:25:00,47.5,42.8,30.03,SE,137,2.0,2.9,84,0.00,,,0.00,meteobridge,2013-10-11 14:25:00,
2013-10-11 07:30:00,48.2,43.0,30.03,SSE,148,2.0,2.9,82,0.00,,,0.00,meteobridge,2013-10-11 14:30:00,
2013-10-11 07:35:00,48.9,43.7,30.03,SSE,148,0.9,2.0,82,0.00,,,0.00,meteobridge,2013-10-11 14:35:00,
2013-10-11 07:40:00,49.8,43.9,30.03,ESE,120,0.0,2.0,80,0.00,,,0.00,meteobridge,2013-10-11 14:40:00,
2013-10-11 07:45:00,50.5,44.2,30.03,SE,135,2.0,2.0,79,0.00,,,0.00,meteobridge,2013-10-11 14:45:00,
2013-10-11 07:50:00,51.1,44.8,30.03,SE,143,2.9,4.0,79,0.00,,,0.00,meteobridge,2013-10-11 14:50:00,
2013-10-11 07:55:00,51.3,45.0,30.03,SSE,148,2.9,4.0,79,0.00,,,0.00,meteobridge,2013-10-11 14:55:00,
2013-10-11 08:00:00,51.8,45.1,30.04,SE,145,2.9,2.9,78,0.00,,,0.00,meteobridge,2013-10-11 15:00:00,
2013-10-11 08:05:00,52.3,45.3,30.04,SE,136,2.0,2.9,77,0.00,,,0.00,meteobridge,2013-10-11 15:05:00,
2013-10-11 08:10:00,52.9,45.9,30.04,SE,141,0.9,2.0,77,0.00,,,0.00,meteobridge,2013-10-11 15:10:00,
2013-10-11 08:16:00,54.0,46.9,30.04,SSE,159,0.0,0.0,77,0.00,,,0.00,meteobridge,2013-10-11 15:16:00,
2013-10-11 08:21:00,55.2,47.1,30.04,ESE,115,0.0,0.9,74,0.00,,,0.00,meteobridge,2013-10-11 15:21:00,
2013-10-11 08:26:00,55.9,47.1,30.04,SE,145,2.9,2.9,72,0.00,,,0.00,meteobridge,2013-10-11 15:26:00,
2013-10-11 08:31:00,56.3,47.5,30.04,South,173,0.0,0.9,72,0.00,,,0.00,meteobridge,2013-10-11 15:31:00,
2013-10-11 08:36:00,57.0,46.6,30.04,SSE,157,0.9,0.9,68,0.00,,,0.00,meteobridge,2013-10-11 15:36:00,
2013-10-11 08:41:00,57.7,46.0,30.04,SSE,163,2.9,2.9,65,0.00,,,0.00,meteobridge,2013-10-11 15:41:00,
2013-10-11 08:46:00,58.1,46.4,30.04,SSE,147,0.9,2.0,65,0.00,,,0.00,meteobridge,2013-10-11 15:46:00,
2013-10-11 08:51:00,58.6,45.3,30.05,SE,139,0.9,2.9,61,0.00,,,0.00,meteobridge,2013-10-11 15:51:00,
2013-10-11 08:56:00,59.2,44.4,30.05,SW,226,0.9,0.9,58,0.00,,,0.00,meteobridge,2013-10-11 15:56:00,
2013-10-11 09:01:00,59.2,43.5,30.05,West,269,0.0,0.9,56,0.00,,,0.00,meteobridge,2013-10-11 16:01:00,
2013-10-11 09:06:00,58.8,43.7,30.05,WSW,237,0.0,0.9,57,0.00,,,0.00,meteobridge,2013-10-11 16:06:00,
2013-10-11 09:11:00,58.8,43.2,30.05,WNW,293,2.9,2.9,56,0.00,,,0.00,meteobridge,2013-10-11 16:11:00,
2013-10-11 09:16:00,58.8,42.6,30.05,West,272,2.9,4.0,55,0.00,,,0.00,meteobridge,2013-10-11 16:16:00,
2013-10-11 09:21:00,58.8,42.6,30.05,WNW,297,0.9,2.9,55,0.00,,,0.00,meteobridge,2013-10-11 16:21:00,
2013-10-11 09:27:00,59.4,42.8,30.05,WNW,295,0.9,0.9,54,0.00,,,0.00,meteobridge,2013-10-11 16:27:00,
2013-10-11 09:32:00,59.7,42.6,30.05,WNW,300,0.0,2.0,53,0.00,,,0.00,meteobridge,2013-10-11 16:32:00,
2013-10-11 09:37:00,60.4,43.2,30.05,WNW,286,0.0,0.0,53,0.00,,,0.00,meteobridge,2013-10-11 16:37:00,
2013-10-11 09:42:00,61.5,42.6,30.05,West,270,0.0,0.9,50,0.00,,,0.00,meteobridge,2013-10-11 16:42:00,
2013-10-11 09:47:00,61.3,42.1,30.05,WNW,293,0.9,2.9,49,0.00,,,0.00,meteobridge,2013-10-11 16:47:00,
2013-10-11 09:52:00,61.3,42.1,30.05,NNW,340,0.0,2.0,49,0.00,,,0.00,meteobridge,2013-10-11 16:52:00,
2013-10-11 09:57:00,61.5,41.7,30.05,NNW,328,2.0,2.9,48,0.00,,,0.00,meteobridge,2013-10-11 16:57:00,
2013-10-11 10:02:00,61.9,41.9,30.05,WNW,299,0.9,2.0,48,0.00,,,0.00,meteobridge,2013-10-11 17:02:00,
2013-10-11 10:07:00,62.1,42.6,30.05,North,6,0.0,2.0,49,0.00,,,0.00,meteobridge,2013-10-11 17:07:00,
2013-10-11 10:13:00,63.1,43.2,30.05,East,90,0.9,0.9,48,0.00,,,0.00,meteobridge,2013-10-11 17:13:00,
2013-10-11 10:18:00,63.5,43.5,30.05,NNE,20,0.9,0.9,48,0.00,,,0.00,meteobridge,2013-10-11 17:18:00,
2013-10-11 10:23:00,64.2,43.5,30.05,WNW,287,0.9,2.0,47,0.00,,,0.00,meteobridge,2013-10-11 17:23:00,
2013-10-11 10:28:00,64.0,41.7,30.04,North,4,2.9,4.0,44,0.00,,,0.00,meteobridge,2013-10-11 17:28:00,
2013-10-11 10:33:00,64.0,42.3,30.04,NNW,346,0.0,0.9,45,0.00,,,0.00,meteobridge,2013-10-11 17:33:00,
2013-10-11 10:38:00,64.8,41.7,30.04,NNW,330,0.0,0.9,43,0.00,,,0.00,meteobridge,2013-10-11 17:38:00,
2013-10-11 10:43:00,65.1,41.5,30.04,NW,317,0.0,0.0,42,0.00,,,0.00,meteobridge,2013-10-11 17:43:00,
2013-10-11 10:48:00,66.0,41.0,30.04,NE,54,0.9,2.9,40,0.00,,,0.00,meteobridge,2013-10-11 17:48:00,
2013-10-11 10:53:00,66.4,40.6,30.04,North,350,2.0,2.0,39,0.00,,,0.00,meteobridge,2013-10-11 17:53:00,
2013-10-11 10:58:00,66.6,40.8,30.04,NNE,20,0.0,0.9,39,0.00,,,0.00,meteobridge,2013-10-11 17:58:00,
2013-10-11 11:03:00,66.6,40.8,30.04,West,275,0.9,4.0,39,0.00,,,0.00,meteobridge,2013-10-11 18:03:00,
2013-10-11 11:08:00,66.6,40.8,30.03,NW,308,0.0,4.0,39,0.00,,,0.00,meteobridge,2013-10-11 18:08:00,
2013-10-11 11:14:00,67.3,41.5,30.03,West,271,0.9,4.9,39,0.00,,,0.00,meteobridge,2013-10-11 18:14:00,
2013-10-11 11:19:00,66.9,41.2,30.03,WNW,300,2.9,4.9,39,0.00,,,0.00,meteobridge,2013-10-11 18:19:00,
2013-10-11 11:24:00,66.9,40.5,30.03,NE,44,0.9,0.9,38,0.00,,,0.00,meteobridge,2013-10-11 18:24:00,
2013-10-11 11:29:00,67.6,40.5,30.03,WSW,240,2.0,4.0,37,0.00,,,0.00,meteobridge,2013-10-11 18:29:00,
2013-10-11 11:34:00,67.8,39.9,30.03,West,271,0.0,2.9,36,0.00,,,0.00,meteobridge,2013-10-11 18:34:00,
2013-10-11 11:39:00,67.5,38.8,30.03,NW,308,2.9,6.0,35,0.00,,,0.00,meteobridge,2013-10-11 18:39:00,
2013-10-11 11:44:00,67.5,38.8,30.02,North,11,0.0,2.9,35,0.00,,,0.00,meteobridge,2013-10-11 18:44:00,
2013-10-11 11:49:00,68.4,41.0,30.02,WNW,290,0.0,0.9,37,0.00,,,0.00,meteobridge,2013-10-11 18:49:00,
2013-10-11 11:54:00,68.7,39.9,30.02,NNE,22,4.0,4.0,35,0.00,,,0.00,meteobridge,2013-10-11 18:54:00,
2013-10-11 11:59:00,68.9,39.4,30.02,NE,36,4.0,6.0,34,0.00,,,0.00,meteobridge,2013-10-11 18:59:00,
2013-10-11 12:04:00,69.3,38.8,30.01,WNW,303,4.9,4.9,33,0.00,,,0.00,meteobridge,2013-10-11 19:04:00,
2013-10-11 12:09:00,69.3,39.7,30.01,NNE,23,4.0,4.9,34,0.00,,,0.00,meteobridge,2013-10-11 19:09:00,
2013-10-11 12:14:00,69.4,39.9,30.01,West,267,2.9,4.0,34,0.00,,,0.00,meteobridge,2013-10-11 19:14:00,
2013-10-11 12:19:00,69.4,39.0,30.01,SE,139,2.9,4.0,33,0.00,,,0.00,meteobridge,2013-10-11 19:19:00,
2013-10-11 12:24:00,70.2,39.7,30.01,NW,313,0.9,2.0,33,0.00,,,0.00,meteobridge,2013-10-11 19:24:00,
2013-10-11 12:29:00,70.3,39.9,30.01,WNW,291,2.0,4.0,33,0.00,,,0.00,meteobridge,2013-10-11 19:29:00,
2013-10-11 12:34:00,70.5,38.5,30.00,WNW,288,2.0,4.9,31,0.00,,,0.00,meteobridge,2013-10-11 19:34:00,
2013-10-11 12:39:00,70.3,38.3,30.00,SW,236,2.9,6.0,31,0.00,,,0.00,meteobridge,2013-10-11 19:39:00,
2013-10-11 12:44:00,70.5,38.5,30.00,NW,319,8.1,8.1,31,0.00,,,0.00,meteobridge,2013-10-11 19:44:00,
2013-10-11 12:49:00,70.3,38.3,29.99,NNE,26,0.0,4.0,31,0.00,,,0.00,meteobridge,2013-10-11 19:49:00,
2013-10-11 12:55:00,70.5,37.6,29.99,WSW,239,0.0,2.0,30,0.00,,,0.00,meteobridge,2013-10-11 19:55:00,
2013-10-11 13:00:00,70.7,38.7,29.99,WNW,295,2.9,4.9,31,0.00,,,0.00,meteobridge,2013-10-11 20:00:00,
2013-10-11 13:05:00,70.9,37.9,29.98,SSW,210,0.9,2.0,30,0.00,,,0.00,meteobridge,2013-10-11 20:05:00,
2013-10-11 13:10:00,71.4,38.3,29.98,SW,229,0.9,4.0,30,0.00,,,0.00,meteobridge,2013-10-11 20:10:00,
2013-10-11 13:15:00,72.1,39.0,29.98,WSW,257,4.0,4.9,30,0.00,,,0.00,meteobridge,2013-10-11 20:15:00,
2013-10-11 13:20:00,72.1,39.0,29.98,WSW,250,4.9,4.9,30,0.00,,,0.00,meteobridge,2013-10-11 20:20:00,
2013-10-11 13:25:00,72.1,39.0,29.98,SW,224,4.0,6.9,30,0.00,,,0.00,meteobridge,2013-10-11 20:25:00,
2013-10-11 13:30:00,71.8,39.6,29.97,SSW,207,4.9,6.9,31,0.00,,,0.00,meteobridge,2013-10-11 20:30:00,
2013-10-11 13:35:00,72.1,39.0,29.97,WSW,250,2.0,4.0,30,0.00,,,0.00,meteobridge,2013-10-11 20:35:00,
2013-10-11 13:40:00,72.7,38.7,29.97,NNW,345,2.0,2.9,29,0.00,,,0.00,meteobridge,2013-10-11 20:40:00,
2013-10-11 13:45:00,72.7,39.4,29.97,West,281,6.0,6.9,30,0.00,,,0.00,meteobridge,2013-10-11 20:45:00,
2013-10-11 13:50:00,72.7,38.7,29.97,WSW,255,4.0,6.0,29,0.00,,,0.00,meteobridge,2013-10-11 20:50:00,
2013-10-11 13:55:00,72.7,38.7,29.97,SW,219,6.0,6.0,29,0.00,,,0.00,meteobridge,2013-10-11 20:55:00,
2013-10-11 14:00:00,73.2,38.1,29.97,WSW,239,6.0,6.0,28,0.00,,,0.00,meteobridge,2013-10-11 21:00:00,
2013-10-11 14:05:00,73.8,38.7,29.97,SSW,207,0.0,2.0,28,0.00,,,0.00,meteobridge,2013-10-11 21:05:00,
2013-10-11 14:10:00,74.8,38.7,29.97,NNE,16,0.0,2.9,27,0.00,,,0.00,meteobridge,2013-10-11 21:10:00,
2013-10-11 14:15:00,73.9,38.8,29.96,West,263,4.0,6.9,28,0.00,,,0.00,meteobridge,2013-10-11 21:15:00,
2013-10-11 14:20:00,73.6,38.5,29.96,WSW,238,4.9,6.9,28,0.00,,,0.00,meteobridge,2013-10-11 21:20:00,
2013-10-11 14:25:00,73.0,37.9,29.96,WSW,256,6.9,6.9,28,0.00,,,0.00,meteobridge,2013-10-11 21:25:00,
2013-10-11 14:30:00,73.2,39.0,29.96,WNW,284,4.9,6.9,29,0.00,,,0.00,meteobridge,2013-10-11 21:30:00,
2013-10-11 14:35:00,73.2,38.1,29.96,NW,307,2.9,4.9,28,0.00,,,0.00,meteobridge,2013-10-11 21:35:00,
2013-10-11 14:40:00,73.2,39.0,29.96,NW,318,2.0,4.9,29,0.00,,,0.00,meteobridge,2013-10-11 21:40:00,
2013-10-11 14:45:00,73.2,38.1,29.96,WNW,288,0.9,0.9,28,0.00,,,0.00,meteobridge,2013-10-11 21:45:00,
2013-10-11 14:50:00,73.6,38.5,29.96,NNW,334,2.0,2.9,28,0.00,,,0.00,meteobridge,2013-10-11 21:50:00,
2013-10-11 14:55:00,73.6,37.6,29.96,NE,38,2.0,6.0,27,0.00,,,0.00,meteobridge,2013-10-11 21:55:00,
2013-10-11 15:00:00,73.6,37.6,29.96,NNW,328,2.9,4.9,27,0.00,,,0.00,meteobridge,2013-10-11 22:00:00,
2013-10-11 15:06:00,73.6,36.5,29.96,NW,321,2.0,2.9,26,0.00,,,0.00,meteobridge,2013-10-11 22:06:00,
2013-10-11 15:11:00,73.9,36.9,29.96,ESE,112,2.0,2.0,26,0.00,,,0.00,meteobridge,2013-10-11 22:11:00,
2013-10-11 15:16:00,74.7,36.5,29.96,East,98,0.0,2.0,25,0.00,,,0.00,meteobridge,2013-10-11 22:16:00,
2013-10-11 15:21:00,74.8,36.7,29.96,NW,326,2.9,2.9,25,0.00,,,0.00,meteobridge,2013-10-11 22:21:00,
2013-10-11 15:26:00,74.7,36.5,29.96,NNW,347,4.0,6.9,25,0.00,,,0.00,meteobridge,2013-10-11 22:26:00,
2013-10-11 15:31:00,74.7,36.5,29.96,NE,46,2.0,2.9,25,0.00,,,0.00,meteobridge,2013-10-11 22:31:00,
2013-10-11 15:36:00,74.7,35.4,29.95,SE,139,0.9,2.0,24,0.00,,,0.00,meteobridge,2013-10-11 22:36:00,
2013-10-11 15:41:00,75.2,36.0,29.95,WNW,286,4.9,6.0,24,0.00,,,0.00,meteobridge,2013-10-11 22:41:00,
2013-10-11 15:46:00,74.5,35.2,29.95,WNW,290,4.0,8.1,24,0.00,,,0.00,meteobridge,2013-10-11 22:46:00,
2013-10-11 15:51:00,74.3,35.2,29.95,WNW,302,4.0,4.0,24,0.00,,,0.00,meteobridge,2013-10-11 22:51:00,
2013-10-11 15:56:00,74.5,35.2,29.95,West,276,0.0,0.9,24,0.00,,,0.00,meteobridge,2013-10-11 22:56:00,
2013-10-11 16:01:00,75.0,35.8,29.95,West,262,2.0,6.0,24,0.00,,,0.00,meteobridge,2013-10-11 23:01:00,
2013-10-11 16:06:00,75.4,36.1,29.95,NNE,26,0.9,0.9,24,0.00,,,0.00,meteobridge,2013-10-11 23:06:00,
2013-10-11 16:11:00,74.8,34.5,29.95,NNW,327,4.9,4.9,23,0.00,,,0.00,meteobridge,2013-10-11 23:11:00,
2013-10-11 16:16:00,74.7,35.4,29.95,NW,321,2.0,4.9,24,0.00,,,0.00,meteobridge,2013-10-11 23:16:00,
2013-10-11 16:21:00,74.3,35.2,29.95,NW,307,2.9,4.9,24,0.00,,,0.00,meteobridge,2013-10-11 23:21:00,
2013-10-11 16:26:00,74.3,35.2,29.95,NW,304,4.9,8.9,24,0.00,,,0.00,meteobridge,2013-10-11 23:26:00,
2013-10-11 16:31:00,74.1,35.1,29.94,WNW,288,6.0,6.9,24,0.00,,,0.00,meteobridge,2013-10-11 23:31:00,
2013-10-11 16:36:00,74.1,34.0,29.94,WNW,286,4.0,6.0,23,0.00,,,0.00,meteobridge,2013-10-11 23:36:00,
2013-10-11 16:41:00,73.9,34.9,29.94,NNW,338,2.9,6.9,24,0.00,,,0.00,meteobridge,2013-10-11 23:41:00,
2013-10-11 16:46:00,74.1,34.0,29.94,NW,306,4.0,6.9,23,0.00,,,0.00,meteobridge,2013-10-11 23:46:00,
2013-10-11 16:51:00,74.1,34.0,29.94,WNW,283,2.9,6.9,23,0.00,,,0.00,meteobridge,2013-10-11 23:51:00,
2013-10-11 16:56:00,74.1,35.1,29.94,WNW,302,6.0,6.0,24,0.00,,,0.00,meteobridge,2013-10-11 23:56:00,
2013-10-11 17:01:00,73.9,33.8,29.94,NW,305,8.1,8.1,23,0.00,,,0.00,meteobridge,2013-10-12 00:01:00,
2013-10-11 17:06:00,73.8,33.6,29.94,NW,307,6.0,6.0,23,0.00,,,0.00,meteobridge,2013-10-12 00:06:00,
2013-10-11 17:11:00,73.8,34.7,29.94,NW,305,4.0,6.9,24,0.00,,,0.00,meteobridge,2013-10-12 00:11:00,
2013-10-11 17:16:00,73.8,34.7,29.94,NW,307,4.9,6.0,24,0.00,,,0.00,meteobridge,2013-10-12 00:16:00,
2013-10-11 17:22:00,73.8,33.6,29.94,NW,307,4.9,6.9,23,0.00,,,0.00,meteobridge,2013-10-12 00:22:00,
2013-10-11 17:27:00,73.6,34.5,29.93,WNW,297,10.1,11.0,24,0.00,,,0.00,meteobridge,2013-10-12 00:27:00,
2013-10-11 17:32:00,73.2,34.3,29.93,WNW,293,6.0,8.1,24,0.00,,,0.00,meteobridge,2013-10-12 00:32:00,
2013-10-11 17:37:00,73.0,34.2,29.93,WNW,298,6.9,6.9,24,0.00,,,0.00,meteobridge,2013-10-12 00:37:00,
2013-10-11 17:42:00,72.9,34.0,29.93,WNW,293,6.0,8.9,24,0.00,,,0.00,meteobridge,2013-10-12 00:42:00,
2013-10-11 17:47:00,72.7,34.9,29.93,WNW,303,4.9,6.9,25,0.00,,,0.00,meteobridge,2013-10-12 00:47:00,
2013-10-11 17:52:00,72.1,34.3,29.93,WNW,297,6.0,6.9,25,0.00,,,0.00,meteobridge,2013-10-12 00:52:00,
2013-10-11 17:57:00,72.0,34.2,29.93,WNW,298,6.0,6.9,25,0.00,,,0.00,meteobridge,2013-10-12 00:57:00,
2013-10-11 18:02:00,71.4,33.8,29.93,WNW,298,4.0,4.9,25,0.00,,,0.00,meteobridge,2013-10-12 01:02:00,
2013-10-11 18:07:00,71.2,34.5,29.93,WNW,300,4.0,6.0,26,0.00,,,0.00,meteobridge,2013-10-12 01:07:00,
2013-10-11 18:12:00,70.9,34.3,29.93,NW,314,2.9,4.9,26,0.00,,,0.00,meteobridge,2013-10-12 01:12:00,
2013-10-11 18:17:00,70.5,34.0,29.93,NW,312,4.0,4.9,26,0.00,,,0.00,meteobridge,2013-10-12 01:17:00,
2013-10-11 18:22:00,70.3,33.8,29.93,NW,317,2.9,4.9,26,0.00,,,0.00,meteobridge,2013-10-12 01:22:00,
2013-10-11 18:27:00,70.2,34.7,29.93,WNW,302,2.9,4.0,27,0.00,,,0.00,meteobridge,2013-10-12 01:27:00,
2013-10-11 18:32:00,70.0,34.5,29.93,NNW,328,2.0,2.9,27,0.00,,,0.00,meteobridge,2013-10-12 01:32:00,
2013-10-11 18:37:00,69.6,34.2,29.93,NW,323,2.0,2.9,27,0.00,,,0.00,meteobridge,2013-10-12 01:37:00,
2013-10-11 18:42:00,69.4,34.0,29.93,NNW,333,2.0,2.0,27,0.00,,,0.00,meteobridge,2013-10-12 01:42:00,
2013-10-11 18:47:00,69.3,33.8,29.93,NW,326,0.9,2.0,27,0.00,,,0.00,meteobridge,2013-10-12 01:47:00,
2013-10-11 18:52:00,69.1,33.6,29.93,NW,307,2.0,2.0,27,0.00,,,0.00,meteobridge,2013-10-12 01:52:00,
2013-10-11 18:57:00,68.7,34.3,29.93,NW,304,2.0,2.0,28,0.00,,,0.00,meteobridge,2013-10-12 01:57:00,
2013-10-11 19:02:00,68.7,34.3,29.93,NW,304,0.9,2.0,28,0.00,,,0.00,meteobridge,2013-10-12 02:02:00,
2013-10-11 19:08:00,68.4,34.0,29.93,WNW,302,0.9,0.9,28,0.00,,,0.00,meteobridge,2013-10-12 02:08:00,
2013-10-11 19:13:00,68.2,33.8,29.93,NW,314,0.9,2.0,28,0.00,,,0.00,meteobridge,2013-10-12 02:13:00,
2013-10-11 19:18:00,68.2,33.8,29.93,NW,313,0.9,2.0,28,0.00,,,0.00,meteobridge,2013-10-12 02:18:00,
2013-10-11 19:23:00,67.8,33.4,29.93,NW,313,0.0,0.0,28,0.00,,,0.00,meteobridge,2013-10-12 02:23:00,
2013-10-11 19:28:00,67.5,34.2,29.93,NW,313,0.0,0.0,29,0.00,,,0.00,meteobridge,2013-10-12 02:28:00,
2013-10-11 19:33:00,66.9,34.5,29.93,NW,313,0.0,0.0,30,0.00,,,0.00,meteobridge,2013-10-12 02:33:00,
2013-10-11 19:39:00,66.6,34.2,29.94,NW,313,0.0,0.0,30,0.00,,,0.00,meteobridge,2013-10-12 02:39:00,
2013-10-11 19:44:00,66.4,34.0,29.93,NW,313,0.0,0.0,30,0.00,,,0.00,meteobridge,2013-10-12 02:44:00,
2013-10-11 19:49:00,66.2,33.8,29.93,NW,313,0.0,0.0,30,0.00,,,0.00,meteobridge,2013-10-12 02:49:00,
2013-10-11 19:54:00,66.4,34.0,29.94,NW,313,0.0,0.0,30,0.00,,,0.00,meteobridge,2013-10-12 02:54:00,
2013-10-11 19:59:00,66.2,33.8,29.94,NW,313,0.0,0.0,30,0.00,,,0.00,meteobridge,2013-10-12 02:59:00,
2013-10-11 20:04:00,66.0,33.6,29.94,NW,313,0.0,0.0,30,0.00,,,0.00,meteobridge,2013-10-12 03:04:00,
2013-10-11 20:09:00,66.0,33.6,29.94,NW,313,0.9,0.9,30,0.00,,,0.00,meteobridge,2013-10-12 03:09:00,
2013-10-11 20:15:00,66.0,34.5,29.94,NW,313,0.0,0.0,31,0.00,,,0.00,meteobridge,2013-10-12 03:15:00,
2013-10-11 20:20:00,65.7,35.1,29.94,NW,313,0.0,0.0,32,0.00,,,0.00,meteobridge,2013-10-12 03:20:00,
2013-10-11 20:25:00,65.5,34.9,29.94,NW,313,0.0,0.0,32,0.00,,,0.00,meteobridge,2013-10-12 03:25:00,
2013-10-11 20:30:00,65.3,34.7,29.94,NW,313,0.9,0.9,32,0.00,,,0.00,meteobridge,2013-10-12 03:30:00,
2013-10-11 20:35:00,65.1,34.5,29.94,WNW,303,0.9,0.9,32,0.00,,,0.00,meteobridge,2013-10-12 03:35:00,
2013-10-11 20:40:00,64.9,35.1,29.94,WNW,303,0.0,0.9,33,0.00,,,0.00,meteobridge,2013-10-12 03:40:00,
2013-10-11 20:46:00,64.6,35.6,29.95,WNW,303,0.0,0.0,34,0.00,,,0.00,meteobridge,2013-10-12 03:46:00,
2013-10-11 20:51:00,63.5,36.1,29.95,WNW,303,0.0,0.0,36,0.00,,,0.00,meteobridge,2013-10-12 03:51:00,
2013-10-11 20:56:00,63.0,35.6,29.95,WNW,303,0.0,0.0,36,0.00,,,0.00,meteobridge,2013-10-12 03:56:00,
2013-10-11 21:01:00,62.8,36.1,29.95,WNW,303,0.0,0.0,37,0.00,,,0.00,meteobridge,2013-10-12 04:01:00,
2013-10-11 21:02:00,62.8,36.1,29.95,WNW,303,0.0,0.0,37,0.00,,,0.00,meteobridge,2013-10-12 04:02:00,
2013-10-11 21:03:00,62.4,35.8,29.95,WNW,303,0.0,0.0,37,0.00,,,0.00,meteobridge,2013-10-12 04:03:00,
2013-10-11 21:09:00,62.1,36.1,29.95,WNW,303,0.0,0.9,38,0.00,,,0.00,meteobridge,2013-10-12 04:09:00,
2013-10-11 21:10:00,62.1,36.1,29.95,WNW,303,0.0,0.0,38,0.00,,,0.00,meteobridge,2013-10-12 04:10:00,
2013-10-11 21:15:00,61.9,36.0,29.95,WNW,303,0.0,0.0,38,0.00,,,0.00,meteobridge,2013-10-12 04:15:00,
2013-10-11 21:21:00,61.5,37.0,29.95,WNW,303,0.0,0.0,40,0.00,,,0.00,meteobridge,2013-10-12 04:21:00,
2013-10-11 21:26:00,60.8,36.9,29.96,WNW,303,0.0,0.0,41,0.00,,,0.00,meteobridge,2013-10-12 04:26:00,
2013-10-11 21:31:00,60.4,36.7,29.96,WNW,303,0.0,0.0,41,0.00,,,0.00,meteobridge,2013-10-12 04:31:00,
2013-10-11 21:36:00,60.4,36.7,29.96,WNW,303,0.0,0.0,41,0.00,,,0.00,meteobridge,2013-10-12 04:36:00,
2013-10-11 21:41:00,60.6,36.1,29.96,WNW,302,0.0,0.0,40,0.00,,,0.00,meteobridge,2013-10-12 04:41:00,
2013-10-11 21:46:00,60.6,36.1,29.96,WNW,302,0.0,0.0,40,0.00,,,0.00,meteobridge,2013-10-12 04:46:00,
2013-10-11 21:51:00,60.3,36.5,29.96,WNW,303,0.0,0.0,41,0.00,,,0.00,meteobridge,2013-10-12 04:51:00,
2013-10-11 21:56:00,59.5,35.8,29.96,WNW,302,0.0,0.0,41,0.00,,,0.00,meteobridge,2013-10-12 04:56:00,
2013-10-11 22:01:00,58.8,35.8,29.96,WNW,302,0.0,0.0,42,0.00,,,0.00,meteobridge,2013-10-12 05:01:00,
2013-10-11 22:06:00,58.3,36.0,29.96,WNW,303,0.0,0.0,43,0.00,,,0.00,meteobridge,2013-10-12 05:06:00,
2013-10-11 22:12:00,58.5,36.7,29.96,WNW,303,0.0,0.0,44,0.00,,,0.00,meteobridge,2013-10-12 05:12:00,
2013-10-11 22:17:00,58.6,36.1,29.96,WNW,302,0.0,0.0,43,0.00,,,0.00,meteobridge,2013-10-12 05:17:00,
2013-10-11 22:22:00,58.8,37.0,29.96,WNW,303,0.0,0.0,44,0.00,,,0.00,meteobridge,2013-10-12 05:22:00,
2013-10-11 22:27:00,59.0,36.5,29.96,WNW,302,0.0,0.0,43,0.00,,,0.00,meteobridge,2013-10-12 05:27:00,
2013-10-11 22:32:00,59.0,35.4,29.96,WSW,255,0.0,0.0,41,0.00,,,0.00,meteobridge,2013-10-12 05:32:00,
2013-10-11 22:37:00,58.8,34.5,29.96,WSW,255,0.0,0.0,40,0.00,,,0.00,meteobridge,2013-10-12 05:37:00,
2013-10-11 22:42:00,59.0,34.7,29.96,ESE,117,2.9,2.9,40,0.00,,,0.00,meteobridge,2013-10-12 05:42:00,
2013-10-11 22:47:00,57.0,36.0,29.96,SE,131,2.0,2.0,45,0.00,,,0.00,meteobridge,2013-10-12 05:47:00,
2013-10-11 22:53:00,57.0,35.2,29.96,SE,131,0.9,2.0,44,0.00,,,0.00,meteobridge,2013-10-12 05:53:00,
2013-10-11 22:58:00,57.6,35.2,29.96,SE,126,0.9,2.0,43,0.00,,,0.00,meteobridge,2013-10-12 05:58:00,
2013-10-11 23:03:00,57.7,35.4,29.96,SE,126,2.9,4.0,43,0.00,,,0.00,meteobridge,2013-10-12 06:03:00,
2013-10-11 23:08:00,57.6,35.8,29.96,SE,131,4.0,4.0,44,0.00,,,0.00,meteobridge,2013-10-12 06:08:00,
2013-10-11 23:13:00,55.4,36.0,29.96,SE,143,4.0,4.0,48,0.00,,,0.00,meteobridge,2013-10-12 06:13:00,
2013-10-11 23:18:00,54.7,36.3,29.96,SE,145,2.9,4.9,50,0.00,,,0.00,meteobridge,2013-10-12 06:18:00,
2013-10-11 23:23:00,53.4,37.2,29.96,SE,132,2.9,4.0,54,0.00,,,0.00,meteobridge,2013-10-12 06:23:00,
2013-10-11 23:28:00,52.3,37.6,29.96,SE,132,2.9,4.0,57,0.00,,,0.00,meteobridge,2013-10-12 06:28:00,
2013-10-11 23:33:00,52.3,37.0,29.96,SE,127,2.9,2.9,56,0.00,,,0.00,meteobridge,2013-10-12 06:33:00,
2013-10-11 23:39:00,52.2,37.8,29.96,SE,127,2.9,4.0,58,0.00,,,0.00,meteobridge,2013-10-12 06:39:00,
2013-10-11 23:43:00,52.5,37.2,29.96,SE,127,2.9,2.9,56,0.00,,,0.00,meteobridge,2013-10-12 06:43:00,
2013-10-11 23:49:00,53.1,36.9,29.95,SSE,153,2.9,2.9,54,0.00,,,0.00,meteobridge,2013-10-12 06:49:00,
2013-10-11 23:54:00,53.1,36.9,29.95,SSE,156,4.0,4.0,54,0.00,,,0.00,meteobridge,2013-10-12 06:54:00,
2013-10-11 23:59:00,53.4,36.7,29.95,SE,146,2.9,4.0,53,0.00,,,0.00,meteobridge,2013-10-12 06:59:00,